sensor_id;sensor_type;location;lat;lon;timestamp;pressure;altitude;pressure_sealevel;temperature;humidity
64933;BME280;51446;53.850;10.662;2022-10-16T00:02:20;100807.94;;;13.27;100.00
64933;BME280;51446;53.850;10.662;2022-10-16T00:04:45;100807.06;;;13.25;100.00
64933;BME280;51446;53.850;10.662;2022-10-16T00:07:10;100814.06;;;13.25;100.00
64933;BME280;51446;53.850;10.662;2022-10-16T00:09:35;100812.28;;;13.16;100.00
64933;BME280;51446;53.850;10.662;2022-10-16T00:12:01;100809.66;;;13.19;100.00
64933;BME280;51446;53.850;10.662;2022-10-16T00:14:26;100814.97;;;13.25;100.00
64933;BME280;51446;53.850;10.662;2022-10-16T00:16:51;100818.63;;;13.47;100.00
64933;BME280;51446;53.850;10.662;2022-10-16T00:19:16;100819.47;;;13.40;99.53
64933;BME280;51446;53.850;10.662;2022-10-16T00:21:42;100819.41;;;13.34;99.58
64933;BME280;51446;53.850;10.662;2022-10-16T00:24:09;100817.69;;;13.39;99.44
64933;BME280;51446;53.850;10.662;2022-10-16T00:26:35;100822.09;;;13.45;98.83
64933;BME280;51446;53.850;10.662;2022-10-16T00:29:01;100826.50;;;13.40;99.19
64933;BME280;51446;53.850;10.662;2022-10-16T00:31:27;100834.44;;;13.49;98.87
64933;BME280;51446;53.850;10.662;2022-10-16T00:33:53;100833.50;;;13.42;97.94
64933;BME280;51446;53.850;10.662;2022-10-16T00:36:21;100828.22;;;13.38;98.74
64933;BME280;51446;53.850;10.662;2022-10-16T00:38:47;100827.34;;;13.35;98.73
64933;BME280;51446;53.850;10.662;2022-10-16T00:41:16;100831.66;;;13.32;99.50
64933;BME280;51446;53.850;10.662;2022-10-16T00:43:52;100833.44;;;13.31;99.20
64933;BME280;51446;53.850;10.662;2022-10-16T00:46:35;100843.16;;;13.40;99.37
64933;BME280;51446;53.850;10.662;2022-10-16T00:49:08;100839.56;;;13.29;99.62
64933;BME280;51446;53.850;10.662;2022-10-16T00:51:39;100832.47;;;13.14;100.00
64933;BME280;51446;53.850;10.662;2022-10-16T00:54:12;100839.53;;;13.26;100.00
64933;BME280;51446;53.850;10.662;2022-10-16T00:56:39;100847.47;;;13.29;99.98
64933;BME280;51446;53.850;10.662;2022-10-16T00:59:11;100842.94;;;13.11;100.00
64933;BME280;51446;53.850;10.662;2022-10-16T01:01:40;100849.22;;;13.25;100.00
64933;BME280;51446;53.850;10.662;2022-10-16T01:04:05;100846.59;;;13.30;100.00
64933;BME280;51446;53.850;10.662;2022-10-16T01:06:33;100851.84;;;13.25;100.00
64933;BME280;51446;53.850;10.662;2022-10-16T01:09:11;100857.03;;;13.16;100.00
64933;BME280;51446;53.850;10.662;2022-10-16T01:11:54;100863.22;;;13.18;100.00
64933;BME280;51446;53.850;10.662;2022-10-16T01:16:59;100847.44;;;13.23;100.00
64933;BME280;51446;53.850;10.662;2022-10-16T01:22:17;100857.88;;;13.09;100.00
64933;BME280;51446;53.850;10.662;2022-10-16T01:24:48;100859.63;;;13.08;100.00
64933;BME280;51446;53.850;10.662;2022-10-16T01:30:10;100863.97;;;13.01;100.00
64933;BME280;51446;53.850;10.662;2022-10-16T01:35:21;100870.06;;;12.99;100.00
64933;BME280;51446;53.850;10.662;2022-10-16T01:37:57;100858.69;;;13.00;100.00
64933;BME280;51446;53.850;10.662;2022-10-16T01:40:26;100865.63;;;12.90;100.00
64933;BME280;51446;53.850;10.662;2022-10-16T01:42:59;100879.63;;;12.88;100.00
64933;BME280;51446;53.850;10.662;2022-10-16T01:45:26;100871.81;;;12.97;100.00
64933;BME280;51446;53.850;10.662;2022-10-16T01:47:53;100869.13;;;12.89;100.00
64933;BME280;51446;53.850;10.662;2022-10-16T01:50:20;100877.00;;;12.88;100.00
64933;BME280;51446;53.850;10.662;2022-10-16T01:52:48;100871.72;;;12.84;100.00
64933;BME280;51446;53.850;10.662;2022-10-16T01:55:17;100871.66;;;12.74;100.00
64933;BME280;51446;53.850;10.662;2022-10-16T01:57:46;100863.75;;;12.72;100.00
64933;BME280;51446;53.850;10.662;2022-10-16T02:00:16;100870.72;;;12.72;100.00
64933;BME280;51446;53.850;10.662;2022-10-16T02:02:45;100863.78;;;12.77;100.00
64933;BME280;51446;53.850;10.662;2022-10-16T02:05:22;100868.06;;;12.65;100.00
64933;BME280;51446;53.850;10.662;2022-10-16T02:07:49;100872.50;;;12.71;100.00
64933;BME280;51446;53.850;10.662;2022-10-16T02:10:15;100866.22;;;12.57;100.00
64933;BME280;51446;53.850;10.662;2022-10-16T02:12:44;100862.84;;;12.72;100.00
64933;BME280;51446;53.850;10.662;2022-10-16T02:15:11;100861.97;;;12.71;100.00
64933;BME280;51446;53.850;10.662;2022-10-16T02:17:36;100869.84;;;12.66;100.00
64933;BME280;51446;53.850;10.662;2022-10-16T02:20:02;100868.91;;;12.64;100.00
64933;BME280;51446;53.850;10.662;2022-10-16T02:22:44;100875.00;;;12.60;100.00
64933;BME280;51446;53.850;10.662;2022-10-16T02:25:22;100867.19;;;12.65;100.00
64933;BME280;51446;53.850;10.662;2022-10-16T02:27:54;100875.94;;;12.64;100.00
64933;BME280;51446;53.850;10.662;2022-10-16T02:30:30;100872.38;;;12.60;100.00
64933;BME280;51446;53.850;10.662;2022-10-16T02:32:58;100870.72;;;12.69;100.00
64933;BME280;51446;53.850;10.662;2022-10-16T02:35:27;100871.56;;;12.64;99.80
64933;BME280;51446;53.850;10.662;2022-10-16T02:37:53;100864.56;;;12.65;99.58
64933;BME280;51446;53.850;10.662;2022-10-16T02:40:19;100861.91;;;12.63;99.15
64933;BME280;51446;53.850;10.662;2022-10-16T02:42:49;100866.25;;;12.58;99.40
64933;BME280;51446;53.850;10.662;2022-10-16T02:45:15;100864.44;;;12.53;98.97
64933;BME280;51446;53.850;10.662;2022-10-16T02:47:40;100869.72;;;12.57;99.19
64933;BME280;51446;53.850;10.662;2022-10-16T02:50:06;100872.31;;;12.51;98.89
64933;BME280;51446;53.850;10.662;2022-10-16T02:52:31;100872.31;;;12.51;98.87
64933;BME280;51446;53.850;10.662;2022-10-16T02:54:56;100867.97;;;12.55;98.57
64933;BME280;51446;53.850;10.662;2022-10-16T02:57:22;100862.56;;;12.41;98.86
64933;BME280;51446;53.850;10.662;2022-10-16T02:59:47;100870.50;;;12.45;98.86
64933;BME280;51446;53.850;10.662;2022-10-16T03:02:12;100871.38;;;12.44;98.79
64933;BME280;51446;53.850;10.662;2022-10-16T03:04:37;100868.81;;;12.51;98.41
64933;BME280;51446;53.850;10.662;2022-10-16T03:07:03;100878.31;;;12.36;98.89
64933;BME280;51446;53.850;10.662;2022-10-16T03:09:28;100880.84;;;12.27;99.19
64933;BME280;51446;53.850;10.662;2022-10-16T03:11:53;100875.69;;;12.35;99.55
64933;BME280;51446;53.850;10.662;2022-10-16T03:14:19;100877.44;;;12.39;98.59
64933;BME280;51446;53.850;10.662;2022-10-16T03:16:44;100880.06;;;12.37;98.40
64933;BME280;51446;53.850;10.662;2022-10-16T03:19:09;100878.34;;;12.39;98.10
64933;BME280;51446;53.850;10.662;2022-10-16T03:21:34;100872.09;;;12.29;98.05
64933;BME280;51446;53.850;10.662;2022-10-16T03:24:00;100871.94;;;12.15;97.85
64933;BME280;51446;53.850;10.662;2022-10-16T03:26:25;100873.72;;;12.17;98.82
64933;BME280;51446;53.850;10.662;2022-10-16T03:28:51;100876.47;;;12.26;98.70
64933;BME280;51446;53.850;10.662;2022-10-16T03:31:16;100874.50;;;12.06;98.60
64933;BME280;51446;53.850;10.662;2022-10-16T03:33:41;100867.44;;;12.02;98.96
64933;BME280;51446;53.850;10.662;2022-10-16T03:36:06;100866.66;;;12.12;98.65
64933;BME280;51446;53.850;10.662;2022-10-16T03:38:32;100861.31;;;12.02;98.78
64933;BME280;51446;53.850;10.662;2022-10-16T03:40:57;100852.44;;;11.93;98.76
64933;BME280;51446;53.850;10.662;2022-10-16T03:43:22;100866.41;;;11.92;98.82
64933;BME280;51446;53.850;10.662;2022-10-16T03:45:50;100868.97;;;11.88;99.28
64933;BME280;51446;53.850;10.662;2022-10-16T03:48:17;100867.13;;;11.79;99.15
64933;BME280;51446;53.850;10.662;2022-10-16T03:50:42;100862.13;;;11.99;99.07
64933;BME280;51446;53.850;10.662;2022-10-16T03:53:07;100870.00;;;11.96;98.44
64933;BME280;51446;53.850;10.662;2022-10-16T03:55:32;100870.66;;;11.83;98.74
64933;BME280;51446;53.850;10.662;2022-10-16T03:57:58;100869.81;;;11.84;98.65
64933;BME280;51446;53.850;10.662;2022-10-16T04:00:23;100879.41;;;11.82;98.87
64933;BME280;51446;53.850;10.662;2022-10-16T04:02:48;100886.50;;;11.86;98.86
64933;BME280;51446;53.850;10.662;2022-10-16T04:05:13;100889.16;;;11.89;98.59
64933;BME280;51446;53.850;10.662;2022-10-16T04:07:39;100890.09;;;11.94;97.89
64933;BME280;51446;53.850;10.662;2022-10-16T04:10:04;100890.81;;;11.84;98.20
64933;BME280;51446;53.850;10.662;2022-10-16T04:12:29;100899.59;;;11.84;98.16
64933;BME280;51446;53.850;10.662;2022-10-16T04:14:55;100900.28;;;11.69;98.35
64933;BME280;51446;53.850;10.662;2022-10-16T04:17:20;100897.69;;;11.74;98.88
64933;BME280;51446;53.850;10.662;2022-10-16T04:19:45;100908.31;;;11.80;98.63
64933;BME280;51446;53.850;10.662;2022-10-16T04:22:11;100909.97;;;11.75;98.61
64933;BME280;51446;53.850;10.662;2022-10-16T04:24:36;100913.44;;;11.72;98.83
64933;BME280;51446;53.850;10.662;2022-10-16T04:27:01;100917.94;;;11.81;98.60
64933;BME280;51446;53.850;10.662;2022-10-16T04:29:27;100913.38;;;11.68;98.53
64933;BME280;51446;53.850;10.662;2022-10-16T04:31:52;100919.56;;;11.70;99.30
64933;BME280;51446;53.850;10.662;2022-10-16T04:34:17;100923.91;;;11.68;98.93
64933;BME280;51446;53.850;10.662;2022-10-16T04:36:43;100934.41;;;11.69;99.44
64933;BME280;51446;53.850;10.662;2022-10-16T04:39:08;100933.50;;;11.66;98.84
64933;BME280;51446;53.850;10.662;2022-10-16T04:41:33;100933.38;;;11.58;99.66
64933;BME280;51446;53.850;10.662;2022-10-16T04:43:59;100937.78;;;11.59;99.68
64933;BME280;51446;53.850;10.662;2022-10-16T04:46:24;100942.97;;;11.54;99.94
64933;BME280;51446;53.850;10.662;2022-10-16T04:48:49;100937.69;;;11.51;99.92
64933;BME280;51446;53.850;10.662;2022-10-16T04:51:14;100944.78;;;11.58;100.00
64933;BME280;51446;53.850;10.662;2022-10-16T04:53:40;100942.19;;;11.60;99.42
64933;BME280;51446;53.850;10.662;2022-10-16T04:56:05;100944.06;;;11.69;99.29
64933;BME280;51446;53.850;10.662;2022-10-16T04:58:30;100949.16;;;11.59;99.11
64933;BME280;51446;53.850;10.662;2022-10-16T05:00:55;100955.31;;;11.60;98.86
64933;BME280;51446;53.850;10.662;2022-10-16T05:03:21;100951.78;;;11.58;98.50
64933;BME280;51446;53.850;10.662;2022-10-16T05:05:46;100962.25;;;11.56;98.82
64933;BME280;51446;53.850;10.662;2022-10-16T05:08:13;100963.16;;;11.57;98.54
64933;BME280;51446;53.850;10.662;2022-10-16T05:10:40;100966.56;;;11.51;98.82
64933;BME280;51446;53.850;10.662;2022-10-16T05:13:06;100971.84;;;11.53;99.21
64933;BME280;51446;53.850;10.662;2022-10-16T05:15:31;100965.66;;;11.49;98.95
64933;BME280;51446;53.850;10.662;2022-10-16T05:17:56;100965.63;;;11.48;98.91
64933;BME280;51446;53.850;10.662;2022-10-16T05:20:22;100956.06;;;11.51;98.90
64933;BME280;51446;53.850;10.662;2022-10-16T05:22:48;100947.13;;;11.38;98.54
64933;BME280;51446;53.850;10.662;2022-10-16T05:25:13;100960.06;;;11.27;99.15
64933;BME280;51446;53.850;10.662;2022-10-16T05:27:39;100954.88;;;11.32;99.28
64933;BME280;51446;53.850;10.662;2022-10-16T05:30:04;100956.75;;;11.39;98.58
64933;BME280;51446;53.850;10.662;2022-10-16T05:32:30;100969.09;;;11.45;98.44
64933;BME280;51446;53.850;10.662;2022-10-16T05:34:55;100973.47;;;11.44;98.32
64933;BME280;51446;53.850;10.662;2022-10-16T05:37:20;100976.97;;;11.46;98.00
64933;BME280;51446;53.850;10.662;2022-10-16T05:39:45;100987.34;;;11.36;98.11
64933;BME280;51446;53.850;10.662;2022-10-16T05:42:11;100979.47;;;11.36;98.39
64933;BME280;51446;53.850;10.662;2022-10-16T05:44:36;100987.31;;;11.34;98.44
64933;BME280;51446;53.850;10.662;2022-10-16T05:47:01;100983.84;;;11.35;98.60
64933;BME280;51446;53.850;10.662;2022-10-16T05:49:26;100989.94;;;11.34;98.54
64933;BME280;51446;53.850;10.662;2022-10-16T05:51:52;100996.81;;;11.26;98.46
64933;BME280;51446;53.850;10.662;2022-10-16T05:54:17;100987.28;;;11.31;99.27
64933;BME280;51446;53.850;10.662;2022-10-16T05:56:43;100984.66;;;11.31;98.85
64933;BME280;51446;53.850;10.662;2022-10-16T05:59:08;100986.56;;;11.43;98.70
64933;BME280;51446;53.850;10.662;2022-10-16T06:01:33;100986.66;;;11.49;98.28
64933;BME280;51446;53.850;10.662;2022-10-16T06:03:59;100989.44;;;11.57;97.63
64933;BME280;51446;53.850;10.662;2022-10-16T06:06:26;100989.44;;;11.57;97.37
64933;BME280;51446;53.850;10.662;2022-10-16T06:08:52;100987.53;;;11.48;97.43
64933;BME280;51446;53.850;10.662;2022-10-16T06:11:22;100991.13;;;11.55;97.82
64933;BME280;51446;53.850;10.662;2022-10-16T06:13:51;100988.63;;;11.62;97.04
64933;BME280;51446;53.850;10.662;2022-10-16T06:16:17;101002.66;;;11.65;96.73
64933;BME280;51446;53.850;10.662;2022-10-16T06:18:42;101004.31;;;11.59;97.01
64933;BME280;51446;53.850;10.662;2022-10-16T06:21:09;101015.09;;;11.76;96.74
64933;BME280;51446;53.850;10.662;2022-10-16T06:23:35;101014.25;;;11.79;96.72
64933;BME280;51446;53.850;10.662;2022-10-16T06:26:07;101023.16;;;11.89;96.15
64933;BME280;51446;53.850;10.662;2022-10-16T06:28:33;101024.13;;;11.94;95.22
64933;BME280;51446;53.850;10.662;2022-10-16T06:31:00;101022.22;;;11.85;95.24
64933;BME280;51446;53.850;10.662;2022-10-16T06:33:25;101024.03;;;11.89;95.30
64933;BME280;51446;53.850;10.662;2022-10-16T06:35:50;101023.13;;;11.86;95.69
64933;BME280;51446;53.850;10.662;2022-10-16T06:38:15;101021.72;;;12.08;94.76
64933;BME280;51446;53.850;10.662;2022-10-16T06:40:41;101033.03;;;12.04;94.12
64933;BME280;51446;53.850;10.662;2022-10-16T06:43:06;101031.63;;;12.27;93.35
64933;BME280;51446;53.850;10.662;2022-10-16T06:45:31;101031.91;;;12.51;91.98
64933;BME280;51446;53.850;10.662;2022-10-16T06:47:56;101036.19;;;13.25;88.56
64933;BME280;51446;53.850;10.662;2022-10-16T06:50:22;101023.84;;;14.60;80.51
64933;BME280;51446;53.850;10.662;2022-10-16T06:52:47;101028.31;;;16.09;72.52
64933;BME280;51446;53.850;10.662;2022-10-16T06:55:12;101037.63;;;17.04;66.91
64933;BME280;51446;53.850;10.662;2022-10-16T06:57:38;101026.00;;;17.24;66.07
64933;BME280;51446;53.850;10.662;2022-10-16T07:00:04;101031.91;;;16.03;69.92
64933;BME280;51446;53.850;10.662;2022-10-16T07:02:29;101041.59;;;15.66;72.46
64933;BME280;51446;53.850;10.662;2022-10-16T07:04:54;101049.53;;;15.13;74.85
64933;BME280;51446;53.850;10.662;2022-10-16T07:07:20;101046.91;;;15.44;75.01
64933;BME280;51446;53.850;10.662;2022-10-16T07:09:46;101047.16;;;17.28;66.77
64933;BME280;51446;53.850;10.662;2022-10-16T07:12:11;101056.72;;;17.51;64.62
64933;BME280;51446;53.850;10.662;2022-10-16T07:14:36;101056.19;;;18.83;60.21
64933;BME280;51446;53.850;10.662;2022-10-16T07:17:02;101062.22;;;19.53;59.09
64933;BME280;51446;53.850;10.662;2022-10-16T07:19:27;101061.88;;;20.66;53.75
64933;BME280;51446;53.850;10.662;2022-10-16T07:21:53;101064.34;;;21.16;52.42
64933;BME280;51446;53.850;10.662;2022-10-16T07:24:18;101062.56;;;19.33;56.95
64933;BME280;51446;53.850;10.662;2022-10-16T07:26:45;101053.53;;;20.40;55.04
64933;BME280;51446;53.850;10.662;2022-10-16T07:29:14;101067.31;;;19.66;56.09
64933;BME280;51446;53.850;10.662;2022-10-16T07:31:40;101071.22;;;19.98;57.34
64933;BME280;51446;53.850;10.662;2022-10-16T07:34:05;101073.13;;;21.21;52.47
64933;BME280;51446;53.850;10.662;2022-10-16T07:36:30;101085.44;;;20.43;53.77
64933;BME280;51446;53.850;10.662;2022-10-16T07:38:56;101087.22;;;20.43;55.08
64933;BME280;51446;53.850;10.662;2022-10-16T07:41:21;101085.56;;;20.81;53.89
64933;BME280;51446;53.850;10.662;2022-10-16T07:43:51;101085.38;;;21.67;51.21
64933;BME280;51446;53.850;10.662;2022-10-16T07:46:18;101086.53;;;21.57;51.61
64933;BME280;51446;53.850;10.662;2022-10-16T07:48:44;101082.78;;;21.64;51.66
64933;BME280;51446;53.850;10.662;2022-10-16T07:51:13;101089.13;;;22.27;50.45
64933;BME280;51446;53.850;10.662;2022-10-16T07:53:39;101099.19;;;23.10;48.08
64933;BME280;51446;53.850;10.662;2022-10-16T07:56:06;101091.50;;;23.56;46.28
64933;BME280;51446;53.850;10.662;2022-10-16T07:58:32;101099.13;;;22.83;47.92
64933;BME280;51446;53.850;10.662;2022-10-16T08:00:59;101109.78;;;20.25;53.84
64933;BME280;51446;53.850;10.662;2022-10-16T08:03:27;101102.09;;;20.08;56.43
64933;BME280;51446;53.850;10.662;2022-10-16T08:05:52;101098.63;;;20.95;53.58
64933;BME280;51446;53.850;10.662;2022-10-16T08:08:18;101101.38;;;20.45;55.07
64933;BME280;51446;53.850;10.662;2022-10-16T08:10:44;101100.53;;;18.78;59.49
64933;BME280;51446;53.850;10.662;2022-10-16T08:13:09;101099.69;;;18.76;61.90
64933;BME280;51446;53.850;10.662;2022-10-16T08:15:35;101096.28;;;19.30;59.74
64933;BME280;51446;53.850;10.662;2022-10-16T08:18:02;101102.34;;;18.74;62.36
64933;BME280;51446;53.850;10.662;2022-10-16T08:20:29;101099.69;;;19.39;59.52
64933;BME280;51446;53.850;10.662;2022-10-16T08:22:55;101115.38;;;19.56;59.07
64933;BME280;51446;53.850;10.662;2022-10-16T08:25:21;101113.94;;;19.34;59.36
64933;BME280;51446;53.850;10.662;2022-10-16T08:27:47;101114.16;;;19.18;61.13
64933;BME280;51446;53.850;10.662;2022-10-16T08:30:12;101117.84;;;20.20;57.71
64933;BME280;51446;53.850;10.662;2022-10-16T08:32:38;101113.94;;;20.85;55.26
64933;BME280;51446;53.850;10.662;2022-10-16T08:35:03;101121.66;;;21.37;52.67
64933;BME280;51446;53.850;10.662;2022-10-16T08:37:32;101114.47;;;22.77;49.60
64933;BME280;51446;53.850;10.662;2022-10-16T08:39:58;101112.22;;;22.93;49.18
64933;BME280;51446;53.850;10.662;2022-10-16T08:45:15;101121.03;;;24.33;46.50
64933;BME280;51446;53.850;10.662;2022-10-16T08:47:49;101127.66;;;23.69;47.09
64933;BME280;51446;53.850;10.662;2022-10-16T08:50:26;101120.78;;;24.14;45.40
64933;BME280;51446;53.850;10.662;2022-10-16T08:52:53;101123.47;;;24.65;45.03
64933;BME280;51446;53.850;10.662;2022-10-16T08:55:41;101125.34;;;24.37;45.06
64933;BME280;51446;53.850;10.662;2022-10-16T08:58:15;101119.41;;;25.68;42.33
64933;BME280;51446;53.850;10.662;2022-10-16T09:00:42;101122.75;;;23.82;45.83
64933;BME280;51446;53.850;10.662;2022-10-16T09:03:17;101129.84;;;24.12;45.94
64933;BME280;51446;53.850;10.662;2022-10-16T09:11:29;101130.06;;;24.54;44.95
64933;BME280;51446;53.850;10.662;2022-10-16T09:14:11;101130.84;;;24.58;45.22
64933;BME280;51446;53.850;10.662;2022-10-16T09:16:46;101139.81;;;24.82;43.42
64933;BME280;51446;53.850;10.662;2022-10-16T09:19:21;101139.97;;;23.75;45.53
64933;BME280;51446;53.850;10.662;2022-10-16T09:21:49;101146.88;;;25.31;43.80
64933;BME280;51446;53.850;10.662;2022-10-16T09:24:18;101141.13;;;25.18;43.41
64933;BME280;51446;53.850;10.662;2022-10-16T09:26:44;101141.88;;;25.88;42.42
64933;BME280;51446;53.850;10.662;2022-10-16T09:29:14;101142.44;;;24.84;43.55
64933;BME280;51446;53.850;10.662;2022-10-16T09:31:41;101143.75;;;24.23;44.69
64933;BME280;51446;53.850;10.662;2022-10-16T09:34:20;101142.31;;;23.58;45.65
64933;BME280;51446;53.850;10.662;2022-10-16T09:36:49;101141.22;;;24.44;44.53
64933;BME280;51446;53.850;10.662;2022-10-16T09:39:14;101150.75;;;23.17;47.44
64933;BME280;51446;53.850;10.662;2022-10-16T09:41:43;101151.41;;;24.07;45.94
64933;BME280;51446;53.850;10.662;2022-10-16T09:44:28;101157.53;;;24.63;44.85
64933;BME280;51446;53.850;10.662;2022-10-16T09:47:14;101148.47;;;24.40;44.50
64933;BME280;51446;53.850;10.662;2022-10-16T09:49:50;101149.34;;;25.13;43.56
64933;BME280;51446;53.850;10.662;2022-10-16T09:52:15;101150.56;;;23.78;45.49
64933;BME280;51446;53.850;10.662;2022-10-16T09:54:56;101151.22;;;23.58;46.58
64933;BME280;51446;53.850;10.662;2022-10-16T09:57:22;101156.03;;;23.48;47.28
64933;BME280;51446;53.850;10.662;2022-10-16T09:59:51;101150.13;;;25.17;43.58
64933;BME280;51446;53.850;10.662;2022-10-16T10:02:20;101163.34;;;24.98;43.51
64933;BME280;51446;53.850;10.662;2022-10-16T10:04:50;101169.78;;;24.93;42.82
64933;BME280;51446;53.850;10.662;2022-10-16T10:07:24;101169.69;;;24.97;42.70
64933;BME280;51446;53.850;10.662;2022-10-16T10:09:51;101168.16;;;25.59;41.66
64933;BME280;51446;53.850;10.662;2022-10-16T10:12:20;101164.09;;;24.27;43.82
64933;BME280;51446;53.850;10.662;2022-10-16T10:14:48;101173.19;;;25.21;41.76
64933;BME280;51446;53.850;10.662;2022-10-16T10:17:27;101176.88;;;25.64;40.98
64933;BME280;51446;53.850;10.662;2022-10-16T10:20:26;101189.13;;;25.49;40.81
64933;BME280;51446;53.850;10.662;2022-10-16T10:22:53;101183.13;;;24.71;43.19
64933;BME280;51446;53.850;10.662;2022-10-16T10:25:59;101173.84;;;24.80;42.50
64933;BME280;51446;53.850;10.662;2022-10-16T10:28:51;101193.69;;;25.69;40.18
64933;BME280;51446;53.850;10.662;2022-10-16T10:31:34;101198.91;;;24.81;41.53
64933;BME280;51446;53.850;10.662;2022-10-16T10:34:33;101192.13;;;24.94;41.88
64933;BME280;51446;53.850;10.662;2022-10-16T10:39:40;101191.88;;;24.76;40.94
64933;BME280;51446;53.850;10.662;2022-10-16T10:44:57;101200.38;;;23.84;43.75
64933;BME280;51446;53.850;10.662;2022-10-16T10:50:10;101198.88;;;25.52;40.61
64933;BME280;51446;53.850;10.662;2022-10-16T10:52:48;101201.66;;;24.77;42.11
64933;BME280;51446;53.850;10.662;2022-10-16T10:55:44;101200.44;;;24.86;41.93
64933;BME280;51446;53.850;10.662;2022-10-16T10:58:27;101198.13;;;25.92;39.76
64933;BME280;51446;53.850;10.662;2022-10-16T11:01:14;101205.94;;;25.76;40.49
64933;BME280;51446;53.850;10.662;2022-10-16T11:07:04;101203.50;;;26.76;37.85
64933;BME280;51446;53.850;10.662;2022-10-16T11:09:43;101206.22;;;26.35;38.97
64933;BME280;51446;53.850;10.662;2022-10-16T11:12:17;101199.34;;;26.48;38.55
64933;BME280;51446;53.850;10.662;2022-10-16T11:14:53;101207.34;;;26.50;38.44
64933;BME280;51446;53.850;10.662;2022-10-16T11:17:40;101199.09;;;24.74;39.96
64933;BME280;51446;53.850;10.662;2022-10-16T11:20:14;101200.41;;;23.55;43.13
64933;BME280;51446;53.850;10.662;2022-10-16T11:22:51;101193.09;;;23.89;41.47
64933;BME280;51446;53.850;10.662;2022-10-16T11:25:26;101206.53;;;24.14;40.45
64933;BME280;51446;53.850;10.662;2022-10-16T11:28:01;101202.34;;;23.50;41.40
64933;BME280;51446;53.850;10.662;2022-10-16T11:30:31;101225.50;;;24.08;40.66
64933;BME280;51446;53.850;10.662;2022-10-16T11:35:53;101225.66;;;23.17;41.84
64933;BME280;51446;53.850;10.662;2022-10-16T11:38:30;101224.59;;;23.23;43.23
64933;BME280;51446;53.850;10.662;2022-10-16T11:43:43;101228.69;;;23.03;43.04
64933;BME280;51446;53.850;10.662;2022-10-16T11:46:15;101230.19;;;22.49;44.36
64933;BME280;51446;53.850;10.662;2022-10-16T11:48:51;101233.25;;;22.33;44.26
64933;BME280;51446;53.850;10.662;2022-10-16T11:51:27;101232.53;;;22.25;44.68
64933;BME280;51446;53.850;10.662;2022-10-16T11:54:04;101247.16;;;22.48;44.34
64933;BME280;51446;53.850;10.662;2022-10-16T11:56:37;101247.38;;;21.63;45.96
64933;BME280;51446;53.850;10.662;2022-10-16T11:59:21;101248.84;;;20.42;48.95
64933;BME280;51446;53.850;10.662;2022-10-16T12:01:54;101248.97;;;19.77;51.43
64933;BME280;51446;53.850;10.662;2022-10-16T12:04:31;101258.78;;;19.05;53.92
64933;BME280;51446;53.850;10.662;2022-10-16T12:07:10;101251.97;;;18.78;54.89
64933;BME280;51446;53.850;10.662;2022-10-16T12:09:38;101270.31;;;19.04;55.42
64933;BME280;51446;53.850;10.662;2022-10-16T12:12:04;101270.47;;;18.92;54.81
64933;BME280;51446;53.850;10.662;2022-10-16T12:14:35;101263.16;;;19.11;53.89
64933;BME280;51446;53.850;10.662;2022-10-16T12:17:03;101275.59;;;19.07;53.15
64933;BME280;51446;53.850;10.662;2022-10-16T12:19:31;101280.09;;;19.02;53.59
64933;BME280;51446;53.850;10.662;2022-10-16T12:21:59;101289.09;;;18.88;53.95
64933;BME280;51446;53.850;10.662;2022-10-16T12:24:32;101302.28;;;18.98;53.59
64933;BME280;51446;53.850;10.662;2022-10-16T12:26:58;101301.50;;;18.88;54.68
64933;BME280;51446;53.850;10.662;2022-10-16T12:29:38;101295.50;;;18.66;55.04
64933;BME280;51446;53.850;10.662;2022-10-16T12:32:22;101304.19;;;18.80;55.29
64933;BME280;51446;53.850;10.662;2022-10-16T12:34:50;101306.19;;;19.44;54.43
64933;BME280;51446;53.850;10.662;2022-10-16T12:37:22;101309.25;;;19.10;54.47
64933;BME280;51446;53.850;10.662;2022-10-16T12:39:49;101322.78;;;18.86;55.66
64933;BME280;51446;53.850;10.662;2022-10-16T12:44:50;101323.31;;;18.18;56.96
64933;BME280;51446;53.850;10.662;2022-10-16T12:47:23;101327.56;;;18.43;57.33
64933;BME280;51446;53.850;10.662;2022-10-16T12:49:54;101322.84;;;18.77;56.61
64933;BME280;51446;53.850;10.662;2022-10-16T12:52:28;101330.84;;;18.69;56.78
64933;BME280;51446;53.850;10.662;2022-10-16T12:54:56;101321.94;;;18.77;56.27
64933;BME280;51446;53.850;10.662;2022-10-16T12:57:49;101332.13;;;19.21;55.11
64933;BME280;51446;53.850;10.662;2022-10-16T13:00:25;101330.66;;;18.96;56.35
64933;BME280;51446;53.850;10.662;2022-10-16T13:03:14;101337.94;;;18.72;56.50
64933;BME280;51446;53.850;10.662;2022-10-16T13:11:41;101346.03;;;19.48;51.86
64933;BME280;51446;53.850;10.662;2022-10-16T13:14:21;101353.53;;;19.12;51.78
64933;BME280;51446;53.850;10.662;2022-10-16T13:25:09;101371.69;;;19.54;49.69
64933;BME280;51446;53.850;10.662;2022-10-16T13:27:55;101369.09;;;19.49;49.87
64933;BME280;51446;53.850;10.662;2022-10-16T13:30:24;101378.72;;;19.59;50.86
64933;BME280;51446;53.850;10.662;2022-10-16T13:33:01;101383.13;;;19.62;50.41
64933;BME280;51446;53.850;10.662;2022-10-16T13:35:29;101393.34;;;19.18;51.37
64933;BME280;51446;53.850;10.662;2022-10-16T13:40:51;101401.94;;;18.41;52.70
64933;BME280;51446;53.850;10.662;2022-10-16T13:43:19;101397.56;;;18.32;53.57
64933;BME280;51446;53.850;10.662;2022-10-16T13:46:00;101402.00;;;18.27;53.54